Time;durP1;ratioP1;P1;durP2;ratioP2;P2;SDS_P1;SDS_P2;PMS_P1;PMS_P2;Temp;Humidity;BMP_temperature;BMP_pressure;BME280_temperature;BME280_humidity;BME280_pressure;Samples;Min_cycle;Max_cycle;Signal;HPM_P1;HPM_P2
2023/01/22 00:00:45;;;;;;;3.30;2.08;;;;;;;;;;5051471;28;20459;-68
2023/01/22 00:03:11;;;;;;;1.38;1.27;;;;;;;;;;5063070;28;20132;-71
2023/01/22 00:05:36;;;;;;;0.10;0.10;;;;;;;;;;5057673;28;20029;-70
2023/01/22 00:08:02;;;;;;;1.13;1.13;;;;;;;;;;5063116;28;20103;-75
2023/01/22 00:10:27;;;;;;;0.10;0.10;;;;;;;;;;5069683;28;20047;-71
2023/01/22 00:12:53;;;;;;;0.63;0.63;;;;;;;;;;5069338;28;20035;-70
2023/01/22 00:15:18;;;;;;;0.60;0.60;;;;;;;;;;5068752;28;20031;-70
2023/01/22 00:17:44;;;;;;;0.10;0.10;;;;;;;;;;5073254;28;20082;-69
2023/01/22 00:20:10;;;;;;;0.28;0.28;;;;;;;;;;5072269;28;20132;-70
2023/01/22 00:22:35;;;;;;;0.00;0.00;;;;;;;;;;5066145;28;20020;-69
2023/01/22 00:25:01;;;;;;;1.55;1.45;;;;;;;;;;5035602;28;20542;-70
2023/01/22 00:27:26;;;;;;;0.10;0.10;;;;;;;;;;5035131;28;20040;-69
2023/01/22 00:29:52;;;;;;;0.13;0.13;;;;;;;;;;5060365;28;20044;-70
2023/01/22 00:32:18;;;;;;;0.05;0.05;;;;;;;;;;5061794;28;20021;-70
2023/01/22 00:34:49;;;;;;;0.05;0.05;;;;;;;;;;5072570;28;20429;-69
2023/01/22 00:37:14;;;;;;;0.10;0.10;;;;;;;;;;5050271;28;20028;-69
2023/01/22 00:39:43;;;;;;;0.52;0.52;;;;;;;;;;5044874;28;20023;-70
2023/01/22 00:42:08;;;;;;;0.17;0.17;;;;;;;;;;5061175;28;20021;-69
2023/01/22 00:44:33;;;;;;;0.82;0.82;;;;;;;;;;5044247;28;20024;-70
2023/01/22 00:46:59;;;;;;;1.33;1.30;;;;;;;;;;5054822;28;20029;-69
2023/01/22 00:49:24;;;;;;;1.02;0.95;;;;;;;;;;5049229;28;20090;-69
2023/01/22 00:51:50;;;;;;;3.35;3.10;;;;;;;;;;5072646;28;20493;-69
2023/01/22 00:54:15;;;;;;;0.10;0.10;;;;;;;;;;5072737;28;20524;-69
2023/01/22 00:56:41;;;;;;;3.10;1.55;;;;;;;;;;5072036;28;20033;-68
2023/01/22 00:59:09;;;;;;;0.63;0.63;;;;;;;;;;5054364;28;20429;-69
2023/01/22 01:01:36;;;;;;;1.85;1.75;;;;;;;;;;5037320;28;20119;-69
2023/01/22 01:04:01;;;;;;;3.40;3.20;;;;;;;;;;5038041;28;20120;-69
2023/01/22 01:06:27;;;;;;;0.85;0.85;;;;;;;;;;5072888;28;20107;-69
2023/01/22 01:08:52;;;;;;;0.10;0.10;;;;;;;;;;5070224;28;20024;-69
2023/01/22 01:11:23;;;;;;;0.10;0.10;;;;;;;;;;5072486;28;20056;-69
2023/01/22 01:13:49;;;;;;;0.75;0.75;;;;;;;;;;5038056;28;20097;-69
2023/01/22 01:16:19;;;;;;;0.35;0.35;;;;;;;;;;5054766;28;20397;-69
2023/01/22 01:18:45;;;;;;;1.58;1.48;;;;;;;;;;5072622;28;20031;-69
2023/01/22 01:21:11;;;;;;;0.10;0.10;;;;;;;;;;5047149;28;20049;-70
2023/01/22 01:23:36;;;;;;;0.50;0.50;;;;;;;;;;5042771;28;20082;-69
2023/01/22 01:26:09;;;;;;;0.15;0.15;;;;;;;;;;5051226;28;20044;-70
2023/01/22 01:28:37;;;;;;;2.08;1.17;;;;;;;;;;5054026;28;20033;-69
2023/01/22 01:31:04;;;;;;;0.90;0.90;;;;;;;;;;5056247;28;20056;-69
2023/01/22 01:33:29;;;;;;;1.02;1.02;;;;;;;;;;5054913;28;20098;-68
2023/01/22 01:35:58;;;;;;;0.45;0.32;;;;;;;;;;5053514;28;20075;-69
2023/01/22 01:38:24;;;;;;;1.75;1.65;;;;;;;;;;5055993;28;20028;-69
2023/01/22 01:40:49;;;;;;;5.15;2.05;;;;;;;;;;5053902;28;20034;-68
2023/01/22 01:43:15;;;;;;;0.10;0.10;;;;;;;;;;5044457;28;20103;-68
2023/01/22 01:45:41;;;;;;;0.10;0.10;;;;;;;;;;5034468;28;20061;-71
2023/01/22 01:48:10;;;;;;;0.10;0.10;;;;;;;;;;5035810;28;20107;-68
2023/01/22 01:50:36;;;;;;;0.20;0.20;;;;;;;;;;5035886;28;20036;-68
2023/01/22 01:53:02;;;;;;;2.00;1.75;;;;;;;;;;5036419;28;20033;-68
2023/01/22 01:55:30;;;;;;;0.45;0.45;;;;;;;;;;5044872;28;20079;-68
2023/01/22 01:57:57;;;;;;;0.30;0.30;;;;;;;;;;5054457;28;20451;-68
2023/01/22 02:00:25;;;;;;;2.53;1.23;;;;;;;;;;5054367;28;20106;-68
2023/01/22 02:02:51;;;;;;;6.82;4.45;;;;;;;;;;5055921;28;20037;-69
2023/01/22 02:05:19;;;;;;;4.82;4.40;;;;;;;;;;5055165;28;20057;-68
2023/01/22 02:07:45;;;;;;;0.80;0.80;;;;;;;;;;5055271;28;20388;-68
2023/01/22 02:10:11;;;;;;;0.10;0.10;;;;;;;;;;5053825;28;20078;-70
2023/01/22 02:12:38;;;;;;;0.77;0.77;;;;;;;;;;5055519;28;20068;-69
2023/01/22 02:15:04;;;;;;;1.90;1.83;;;;;;;;;;5054027;28;20064;-68
2023/01/22 02:17:29;;;;;;;0.03;0.03;;;;;;;;;;5055377;28;20061;-69
2023/01/22 02:19:55;;;;;;;0.40;0.40;;;;;;;;;;5060358;28;20087;-68
2023/01/22 02:22:28;;;;;;;0.10;0.10;;;;;;;;;;5057037;28;20082;-69
2023/01/22 02:24:54;;;;;;;0.22;0.22;;;;;;;;;;5056921;28;20388;-68
2023/01/22 02:27:20;;;;;;;0.00;0.00;;;;;;;;;;5075210;28;20033;-69
2023/01/22 02:29:47;;;;;;;0.05;0.05;;;;;;;;;;5057118;28;20478;-69
2023/01/22 02:32:12;;;;;;;0.10;0.10;;;;;;;;;;5057069;28;20111;-68
2023/01/22 02:34:38;;;;;;;1.35;1.27;;;;;;;;;;5057084;28;20082;-68
2023/01/22 02:37:04;;;;;;;0.63;0.63;;;;;;;;;;5074700;28;20025;-69
2023/01/22 02:39:30;;;;;;;0.10;0.10;;;;;;;;;;5056671;28;20137;-69
2023/01/22 02:41:57;;;;;;;0.20;0.20;;;;;;;;;;5056884;28;20392;-69
2023/01/22 02:44:23;;;;;;;0.00;0.00;;;;;;;;;;5053157;28;20025;-69
2023/01/22 02:46:48;;;;;;;0.30;0.30;;;;;;;;;;5053315;28;20036;-69
2023/01/22 02:49:16;;;;;;;0.08;0.08;;;;;;;;;;5036998;28;20538;-70
2023/01/22 02:51:41;;;;;;;0.10;0.10;;;;;;;;;;5054499;28;20067;-69
2023/01/22 02:54:07;;;;;;;3.00;2.85;;;;;;;;;;5036609;28;20028;-69
2023/01/22 02:56:33;;;;;;;0.10;0.10;;;;;;;;;;5053517;28;20025;-69
2023/01/22 02:58:59;;;;;;;0.10;0.10;;;;;;;;;;5036608;28;20032;-69
2023/01/22 03:01:25;;;;;;;0.10;0.10;;;;;;;;;;5039151;28;20040;-70
2023/01/22 03:03:52;;;;;;;4.38;3.65;;;;;;;;;;5052834;28;20024;-69
2023/01/22 03:06:22;;;;;;;0.15;0.15;;;;;;;;;;5036188;28;20056;-69
2023/01/22 03:08:48;;;;;;;2.40;2.30;;;;;;;;;;5035963;28;20094;-69
2023/01/22 03:11:13;;;;;;;0.98;0.98;;;;;;;;;;5036470;28;20021;-69
2023/01/22 03:21:55;;;;;;;0.10;0.10;;;;;;;;;;5029453;28;20045;-70
2023/01/22 03:24:21;;;;;;;0.10;0.10;;;;;;;;;;5014267;28;20045;-70
2023/01/22 03:26:46;;;;;;;0.20;0.20;;;;;;;;;;5013019;28;20026;-70
2023/01/22 03:29:12;;;;;;;2.20;0.65;;;;;;;;;;5012842;28;20026;-70
2023/01/22 03:31:37;;;;;;;0.03;0.03;;;;;;;;;;5012644;28;20100;-70
2023/01/22 03:34:03;;;;;;;1.25;1.15;;;;;;;;;;5012953;28;20360;-69
2023/01/22 03:36:28;;;;;;;0.08;0.08;;;;;;;;;;5013218;28;20099;-69
2023/01/22 03:38:58;;;;;;;1.45;1.35;;;;;;;;;;5012901;28;20065;-69
2023/01/22 03:41:24;;;;;;;0.00;0.00;;;;;;;;;;5012681;28;20045;-70
2023/01/22 03:43:50;;;;;;;0.20;0.20;;;;;;;;;;5012741;28;20033;-69
2023/01/22 03:46:22;;;;;;;0.68;0.68;;;;;;;;;;5012505;28;20080;-69
2023/01/22 03:48:52;;;;;;;0.00;0.00;;;;;;;;;;5012779;28;20128;-69
2023/01/22 03:51:19;;;;;;;0.00;0.00;;;;;;;;;;5012279;28;20084;-69
2023/01/22 03:53:45;;;;;;;0.10;0.10;;;;;;;;;;5028083;28;20036;-69
2023/01/22 03:56:12;;;;;;;2.25;2.13;;;;;;;;;;5032149;28;20032;-70
2023/01/22 03:58:38;;;;;;;0.03;0.03;;;;;;;;;;5032275;28;20076;-69
2023/01/22 04:01:09;;;;;;;0.10;0.10;;;;;;;;;;5031921;28;20063;-69
2023/01/22 04:03:35;;;;;;;0.10;0.10;;;;;;;;;;5027311;28;20029;-69
2023/01/22 04:06:01;;;;;;;0.00;0.00;;;;;;;;;;5028171;28;20025;-69
2023/01/22 04:08:27;;;;;;;0.00;0.00;;;;;;;;;;5028499;28;20030;-69
2023/01/22 04:10:57;;;;;;;0.08;0.08;;;;;;;;;;5029580;28;20034;-70
2023/01/22 04:13:23;;;;;;;0.10;0.10;;;;;;;;;;5028079;28;20037;-69
2023/01/22 04:15:50;;;;;;;0.10;0.10;;;;;;;;;;5028421;28;20033;-73
2023/01/22 04:18:37;;;;;;;0.47;0.47;;;;;;;;;;5029007;28;20064;-69
2023/01/22 04:21:23;;;;;;;0.00;0.00;;;;;;;;;;5035998;28;20131;-69
2023/01/22 04:23:55;;;;;;;0.10;0.10;;;;;;;;;;5047396;28;20037;-69
2023/01/22 04:26:21;;;;;;;0.35;0.35;;;;;;;;;;5048263;28;20033;-73
2023/01/22 04:28:46;;;;;;;0.00;0.00;;;;;;;;;;5048091;28;20443;-69
2023/01/22 04:31:13;;;;;;;0.00;0.00;;;;;;;;;;5047796;28;20052;-69
2023/01/22 04:33:54;;;;;;;0.90;0.90;;;;;;;;;;5047911;28;20033;-69
2023/01/22 04:36:24;;;;;;;0.03;0.03;;;;;;;;;;5047886;28;20028;-70
2023/01/22 04:38:50;;;;;;;0.10;0.10;;;;;;;;;;5047827;28;20392;-70
2023/01/22 04:41:16;;;;;;;0.20;0.20;;;;;;;;;;5047924;28;20025;-69
2023/01/22 04:43:42;;;;;;;0.00;0.00;;;;;;;;;;5047255;28;20044;-70
2023/01/22 04:46:07;;;;;;;0.45;0.45;;;;;;;;;;5047897;28;20373;-69
2023/01/22 04:48:33;;;;;;;0.00;0.00;;;;;;;;;;5047785;28;20025;-68
2023/01/22 04:50:59;;;;;;;0.05;0.05;;;;;;;;;;5047806;28;20037;-69
2023/01/22 04:53:27;;;;;;;0.20;0.20;;;;;;;;;;5047824;28;20041;-68
2023/01/22 04:55:53;;;;;;;0.63;0.63;;;;;;;;;;5047506;28;20377;-69
2023/01/22 04:58:19;;;;;;;0.30;0.30;;;;;;;;;;5047804;28;20029;-69
2023/01/22 05:00:45;;;;;;;0.13;0.13;;;;;;;;;;5046782;28;20036;-70
2023/01/22 05:03:11;;;;;;;0.10;0.10;;;;;;;;;;5050884;28;20055;-69
2023/01/22 05:05:37;;;;;;;0.00;0.00;;;;;;;;;;5051272;28;20839;-69
2023/01/22 05:08:02;;;;;;;0.25;0.25;;;;;;;;;;5051409;28;20127;-77
2023/01/22 05:10:29;;;;;;;0.10;0.10;;;;;;;;;;5051017;28;20025;-69
2023/01/22 05:12:55;;;;;;;0.08;0.08;;;;;;;;;;5051627;28;20372;-69
2023/01/22 05:15:21;;;;;;;0.00;0.00;;;;;;;;;;5051572;28;20029;-78
2023/01/22 05:17:47;;;;;;;1.25;1.25;;;;;;;;;;5034527;28;20116;-72
2023/01/22 05:20:13;;;;;;;0.10;0.10;;;;;;;;;;5060178;28;20128;-69
2023/01/22 05:22:38;;;;;;;0.20;0.20;;;;;;;;;;5054340;28;20020;-70
2023/01/22 05:25:04;;;;;;;0.10;0.10;;;;;;;;;;5054719;28;20028;-68
2023/01/22 05:27:30;;;;;;;0.10;0.10;;;;;;;;;;5055097;28;20074;-69
2023/01/22 05:30:08;;;;;;;0.10;0.10;;;;;;;;;;5054773;28;20093;-69
2023/01/22 05:32:44;;;;;;;0.10;0.10;;;;;;;;;;5054438;28;20024;-70
2023/01/22 05:35:09;;;;;;;0.35;0.35;;;;;;;;;;5054163;28;20392;-69
2023/01/22 05:37:37;;;;;;;0.10;0.10;;;;;;;;;;5054537;28;20149;-68
2023/01/22 05:40:05;;;;;;;0.30;0.30;;;;;;;;;;5054069;28;20043;-68
2023/01/22 05:42:33;;;;;;;0.00;0.00;;;;;;;;;;5054653;28;20025;-68
2023/01/22 05:44:59;;;;;;;0.00;0.00;;;;;;;;;;5054407;28;20029;-68
2023/01/22 05:47:25;;;;;;;0.10;0.10;;;;;;;;;;5070352;28;20036;-69
2023/01/22 05:50:22;;;;;;;0.60;0.47;;;;;;;;;;5054205;28;20381;-68
2023/01/22 05:52:58;;;;;;;0.00;0.00;;;;;;;;;;5071316;28;20732;-68
2023/01/22 05:55:23;;;;;;;1.48;0.63;;;;;;;;;;5071299;28;20111;-68
2023/01/22 05:57:48;;;;;;;7.07;6.60;;;;;;;;;;5070787;28;20024;-70
2023/01/22 06:00:17;;;;;;;0.50;0.50;;;;;;;;;;5052075;28;20036;-69
2023/01/22 06:02:45;;;;;;;0.30;0.30;;;;;;;;;;5052757;28;20035;-70
2023/01/22 06:05:13;;;;;;;0.28;0.28;;;;;;;;;;5053447;28;20025;-69
2023/01/22 06:07:39;;;;;;;0.00;0.00;;;;;;;;;;5053762;28;20422;-80
2023/01/22 06:10:05;;;;;;;0.30;0.30;;;;;;;;;;5070518;28;20032;-70
2023/01/22 06:12:34;;;;;;;0.80;0.80;;;;;;;;;;5053000;28;20028;-69
2023/01/22 06:15:00;;;;;;;0.55;0.55;;;;;;;;;;5052927;28;20127;-69
2023/01/22 06:17:26;;;;;;;0.45;0.45;;;;;;;;;;5053412;28;20024;-69
2023/01/22 06:19:53;;;;;;;0.45;0.40;;;;;;;;;;5049907;28;20077;-69
2023/01/22 06:22:19;;;;;;;0.00;0.00;;;;;;;;;;5048810;28;20059;-69
2023/01/22 06:24:50;;;;;;;0.10;0.10;;;;;;;;;;5034113;28;20988;-69
2023/01/22 06:27:17;;;;;;;0.05;0.05;;;;;;;;;;5050364;28;20099;-69
2023/01/22 06:29:51;;;;;;;0.03;0.03;;;;;;;;;;5034585;28;20025;-69
2023/01/22 06:32:16;;;;;;;0.10;0.10;;;;;;;;;;5049778;28;20996;-69
2023/01/22 06:34:42;;;;;;;0.05;0.05;;;;;;;;;;5050872;28;20029;-69
2023/01/22 06:37:08;;;;;;;0.10;0.10;;;;;;;;;;5049398;28;20067;-69
2023/01/22 06:39:36;;;;;;;0.28;0.28;;;;;;;;;;5050763;28;20425;-69
2023/01/22 06:42:08;;;;;;;1.52;0.68;;;;;;;;;;5049272;28;20143;-72
2023/01/22 06:44:34;;;;;;;0.00;0.00;;;;;;;;;;5049627;28;20444;-70
2023/01/22 06:47:00;;;;;;;0.00;0.00;;;;;;;;;;5049503;28;20125;-68
2023/01/22 06:49:28;;;;;;;0.20;0.20;;;;;;;;;;5049110;28;20500;-69
2023/01/22 06:51:53;;;;;;;0.00;0.00;;;;;;;;;;5048433;28;20033;-69
2023/01/22 06:54:19;;;;;;;0.10;0.10;;;;;;;;;;5049373;28;20090;-77
2023/01/22 06:56:44;;;;;;;0.05;0.05;;;;;;;;;;5048872;28;20033;-70
2023/01/22 06:59:11;;;;;;;0.35;0.35;;;;;;;;;;5049227;28;20017;-69
2023/01/22 07:01:37;;;;;;;0.10;0.10;;;;;;;;;;5049650;28;20041;-69
2023/01/22 07:04:02;;;;;;;0.70;0.52;;;;;;;;;;5048947;28;20476;-69
2023/01/22 07:06:27;;;;;;;0.10;0.10;;;;;;;;;;5048929;28;20032;-70
2023/01/22 07:08:55;;;;;;;0.10;0.10;;;;;;;;;;5050028;28;20024;-76
2023/01/22 07:11:20;;;;;;;0.00;0.00;;;;;;;;;;5050420;28;20033;-72
2023/01/22 07:13:45;;;;;;;0.00;0.00;;;;;;;;;;5048674;28;20028;-73
2023/01/22 07:16:11;;;;;;;0.05;0.05;;;;;;;;;;5049408;28;20036;-70
2023/01/22 07:18:37;;;;;;;0.00;0.00;;;;;;;;;;5050027;28;20036;-69
2023/01/22 07:21:03;;;;;;;0.10;0.10;;;;;;;;;;5048204;28;20064;-68
2023/01/22 07:23:29;;;;;;;0.20;0.20;;;;;;;;;;5050131;28;20091;-70
2023/01/22 07:25:55;;;;;;;0.03;0.03;;;;;;;;;;5048859;28;20056;-70
2023/01/22 07:28:20;;;;;;;0.00;0.00;;;;;;;;;;5048243;28;20056;-73
2023/01/22 07:30:45;;;;;;;0.10;0.10;;;;;;;;;;5049517;28;20036;-69
2023/01/22 07:33:11;;;;;;;0.00;0.00;;;;;;;;;;5050050;28;20033;-69
2023/01/22 07:35:37;;;;;;;0.40;0.40;;;;;;;;;;5049887;28;20033;-68
2023/01/22 07:38:03;;;;;;;0.10;0.10;;;;;;;;;;5050232;28;20119;-71
2023/01/22 07:40:28;;;;;;;0.10;0.10;;;;;;;;;;5048926;28;20044;-69
2023/01/22 07:42:54;;;;;;;0.10;0.10;;;;;;;;;;5050177;28;20075;-69
2023/01/22 07:45:23;;;;;;;0.00;0.00;;;;;;;;;;5047860;28;20544;-69
2023/01/22 07:47:49;;;;;;;0.10;0.10;;;;;;;;;;5049357;28;20025;-69
2023/01/22 07:50:15;;;;;;;0.00;0.00;;;;;;;;;;5049432;28;20029;-71
2023/01/22 07:52:40;;;;;;;0.30;0.30;;;;;;;;;;5047445;28;20107;-69
2023/01/22 07:55:06;;;;;;;1.55;1.25;;;;;;;;;;5049673;28;20025;-69
2023/01/22 07:57:31;;;;;;;0.10;0.10;;;;;;;;;;5049621;28;20045;-71
2023/01/22 07:59:57;;;;;;;0.10;0.10;;;;;;;;;;5049227;28;20120;-70
2023/01/22 08:02:22;;;;;;;0.00;0.00;;;;;;;;;;5047703;28;20025;-77
2023/01/22 08:04:48;;;;;;;0.05;0.05;;;;;;;;;;5048815;28;20025;-69
2023/01/22 08:07:15;;;;;;;0.35;0.35;;;;;;;;;;5029848;28;20021;-70
2023/01/22 08:09:40;;;;;;;0.30;0.30;;;;;;;;;;5046327;28;20091;-76
2023/01/22 08:12:06;;;;;;;0.00;0.00;;;;;;;;;;5048280;28;20029;-68
2023/01/22 08:14:31;;;;;;;0.25;0.25;;;;;;;;;;5048286;28;20025;-68
2023/01/22 08:16:56;;;;;;;0.63;0.63;;;;;;;;;;5048367;28;20040;-69
2023/01/22 08:19:22;;;;;;;0.35;0.35;;;;;;;;;;5049908;28;20111;-73
2023/01/22 08:21:47;;;;;;;0.68;0.43;;;;;;;;;;5068427;28;20051;-69
2023/01/22 08:24:13;;;;;;;0.35;0.35;;;;;;;;;;5069473;28;20031;-69
2023/01/22 08:26:38;;;;;;;0.10;0.10;;;;;;;;;;5068324;28;20488;-70
2023/01/22 08:29:04;;;;;;;0.00;0.00;;;;;;;;;;5069634;28;20036;-69
2023/01/22 08:31:30;;;;;;;0.00;0.00;;;;;;;;;;5069132;28;20029;-69
2023/01/22 08:33:57;;;;;;;0.03;0.03;;;;;;;;;;5068873;28;20059;-69
2023/01/22 08:36:22;;;;;;;0.10;0.10;;;;;;;;;;5068359;28;20036;-70
2023/01/22 08:38:48;;;;;;;0.10;0.10;;;;;;;;;;5073295;28;20367;-69
2023/01/22 08:41:14;;;;;;;1.23;1.20;;;;;;;;;;5055481;28;20392;-69
2023/01/22 08:43:39;;;;;;;0.05;0.05;;;;;;;;;;5071920;28;20032;-69
2023/01/22 08:46:05;;;;;;;0.10;0.10;;;;;;;;;;5065853;28;20035;-68
2023/01/22 08:48:30;;;;;;;0.03;0.03;;;;;;;;;;5070651;28;20446;-70
2023/01/22 08:50:58;;;;;;;0.10;0.10;;;;;;;;;;5071068;28;20373;-69
2023/01/22 08:53:23;;;;;;;0.20;0.20;;;;;;;;;;5054270;28;20499;-69
2023/01/22 08:55:49;;;;;;;0.43;0.43;;;;;;;;;;5070557;28;20035;-69
2023/01/22 08:58:14;;;;;;;0.25;0.25;;;;;;;;;;5063425;28;20033;-77
2023/01/22 09:00:40;;;;;;;0.63;0.63;;;;;;;;;;5061876;28;20049;-69
2023/01/22 09:03:05;;;;;;;0.30;0.30;;;;;;;;;;5052733;28;20099;-68
2023/01/22 09:05:31;;;;;;;0.30;0.30;;;;;;;;;;5052992;28;20111;-69
2023/01/22 09:07:56;;;;;;;0.43;0.43;;;;;;;;;;5059589;28;20050;-69
2023/01/22 09:10:21;;;;;;;4.65;2.30;;;;;;;;;;5045165;28;20029;-68
2023/01/22 09:12:47;;;;;;;0.20;0.20;;;;;;;;;;5040399;28;20048;-70
2023/01/22 09:15:12;;;;;;;0.13;0.13;;;;;;;;;;5057534;28;20086;-69
2023/01/22 09:17:39;;;;;;;0.20;0.20;;;;;;;;;;5071039;28;20040;-70
2023/01/22 09:20:05;;;;;;;0.28;0.28;;;;;;;;;;5054579;28;20067;-69
2023/01/22 09:22:30;;;;;;;0.30;0.30;;;;;;;;;;5072286;28;20484;-69
2023/01/22 09:24:56;;;;;;;0.85;0.50;;;;;;;;;;5071848;28;20032;-70
2023/01/22 09:27:21;;;;;;;1.20;0.65;;;;;;;;;;5072044;28;20100;-68
2023/01/22 09:29:47;;;;;;;1.33;1.33;;;;;;;;;;5071835;28;20106;-69
2023/01/22 09:32:13;;;;;;;0.10;0.10;;;;;;;;;;5071320;28;20035;-69
2023/01/22 09:34:38;;;;;;;0.10;0.10;;;;;;;;;;5070951;28;20029;-70
2023/01/22 09:37:06;;;;;;;0.17;0.17;;;;;;;;;;5071535;28;20029;-70
2023/01/22 09:39:32;;;;;;;0.10;0.10;;;;;;;;;;5071173;28;20025;-70
2023/01/22 09:41:59;;;;;;;0.17;0.17;;;;;;;;;;5071161;28;20090;-72
2023/01/22 09:44:28;;;;;;;0.30;0.30;;;;;;;;;;5037313;28;20031;-69
2023/01/22 09:46:53;;;;;;;1.05;1.02;;;;;;;;;;5070860;28;20373;-69
2023/01/22 09:49:39;;;;;;;0.38;0.38;;;;;;;;;;5052990;28;20032;-70
2023/01/22 09:52:05;;;;;;;0.30;0.30;;;;;;;;;;5053519;28;20036;-70
2023/01/22 09:54:30;;;;;;;0.28;0.28;;;;;;;;;;5071956;28;20036;-71
2023/01/22 09:56:58;;;;;;;0.30;0.30;;;;;;;;;;5053303;28;20044;-71
2023/01/22 09:59:31;;;;;;;0.60;0.47;;;;;;;;;;5053268;28;20032;-69
2023/01/22 10:01:59;;;;;;;0.40;0.40;;;;;;;;;;5036037;28;20415;-69
2023/01/22 10:04:24;;;;;;;0.20;0.20;;;;;;;;;;5071420;28;20388;-69
2023/01/22 10:06:51;;;;;;;0.10;0.10;;;;;;;;;;5070575;28;20028;-70
2023/01/22 10:09:17;;;;;;;0.17;0.17;;;;;;;;;;5071894;28;20036;-69
2023/01/22 10:11:48;;;;;;;0.10;0.10;;;;;;;;;;5070291;28;20052;-70
2023/01/22 10:14:16;;;;;;;0.20;0.20;;;;;;;;;;5070827;28;20020;-70
2023/01/22 10:16:41;;;;;;;0.57;0.55;;;;;;;;;;5053409;28;20029;-70
2023/01/22 10:19:27;;;;;;;0.57;0.57;;;;;;;;;;5071530;28;20514;-71
2023/01/22 10:22:01;;;;;;;0.20;0.20;;;;;;;;;;5068074;28;20170;-71
2023/01/22 10:24:27;;;;;;;0.10;0.10;;;;;;;;;;5071504;28;20032;-70
2023/01/22 10:26:53;;;;;;;0.10;0.10;;;;;;;;;;5071094;28;20015;-69
2023/01/22 10:29:31;;;;;;;0.47;0.30;;;;;;;;;;5070660;28;20036;-70
2023/01/22 10:31:57;;;;;;;0.10;0.10;;;;;;;;;;5070445;28;20105;-70
2023/01/22 10:34:29;;;;;;;1.27;1.23;;;;;;;;;;5071144;28;20040;-70
2023/01/22 10:36:58;;;;;;;0.10;0.10;;;;;;;;;;5068036;28;20021;-71
2023/01/22 10:39:23;;;;;;;4.80;4.60;;;;;;;;;;5052832;28;20139;-75
2023/01/22 10:41:49;;;;;;;0.10;0.10;;;;;;;;;;5045988;28;20028;-71
2023/01/22 10:44:14;;;;;;;0.10;0.10;;;;;;;;;;5066958;28;20025;-71
2023/01/22 10:46:40;;;;;;;0.10;0.10;;;;;;;;;;5069693;28;20439;-72
2023/01/22 10:49:07;;;;;;;0.57;0.38;;;;;;;;;;5053089;28;20032;-71
2023/01/22 10:51:39;;;;;;;0.20;0.20;;;;;;;;;;5052580;28;20025;-71
2023/01/22 10:54:17;;;;;;;0.20;0.20;;;;;;;;;;5070809;28;20033;-72
2023/01/22 10:56:43;;;;;;;0.35;0.35;;;;;;;;;;5070128;28;20059;-72
2023/01/22 10:59:17;;;;;;;0.10;0.10;;;;;;;;;;5070107;28;20074;-72
2023/01/22 11:01:43;;;;;;;1.23;0.43;;;;;;;;;;5069164;28;20066;-73
2023/01/22 11:04:12;;;;;;;0.35;0.35;;;;;;;;;;5069666;28;20116;-77
2023/01/22 11:06:40;;;;;;;0.10;0.10;;;;;;;;;;5069154;28;20024;-75
2023/01/22 11:09:05;;;;;;;0.10;0.10;;;;;;;;;;5070494;28;20040;-72
2023/01/22 11:11:34;;;;;;;0.10;0.10;;;;;;;;;;5068052;28;20029;-73
2023/01/22 11:14:18;;;;;;;1.17;0.47;;;;;;;;;;5061249;28;20036;-72
2023/01/22 11:16:44;;;;;;;0.10;0.10;;;;;;;;;;5055156;28;20419;-77
2023/01/22 11:19:14;;;;;;;0.70;0.60;;;;;;;;;;5061649;28;20028;-72
2023/01/22 11:21:43;;;;;;;0.10;0.10;;;;;;;;;;5070049;28;20040;-76
2023/01/22 11:24:17;;;;;;;1.37;0.87;;;;;;;;;;5070004;28;20108;-70
2023/01/22 11:26:43;;;;;;;0.10;0.10;;;;;;;;;;5035188;28;20262;-71
2023/01/22 11:29:23;;;;;;;0.10;0.10;;;;;;;;;;5069952;28;20102;-73
2023/01/22 11:32:07;;;;;;;0.10;0.10;;;;;;;;;;5069581;28;20023;-72
2023/01/22 11:34:35;;;;;;;0.10;0.10;;;;;;;;;;5069689;28;20387;-71
2023/01/22 11:37:15;;;;;;;0.10;0.10;;;;;;;;;;5069852;28;20383;-70
2023/01/22 11:39:40;;;;;;;0.10;0.10;;;;;;;;;;5069803;28;20028;-71
2023/01/22 11:42:17;;;;;;;0.20;0.20;;;;;;;;;;5069486;28;20047;-70
2023/01/22 11:44:57;;;;;;;0.10;0.10;;;;;;;;;;5051675;28;20040;-71
2023/01/22 11:47:42;;;;;;;0.30;0.30;;;;;;;;;;5051664;28;20027;-70
2023/01/22 11:50:13;;;;;;;0.28;0.28;;;;;;;;;;5069997;28;20027;-72
2023/01/22 11:52:39;;;;;;;0.90;0.77;;;;;;;;;;5051526;28;20052;-74
2023/01/22 11:55:13;;;;;;;0.30;0.30;;;;;;;;;;5069339;28;20056;-72
2023/01/22 11:57:42;;;;;;;0.20;0.20;;;;;;;;;;5069152;28;20028;-70
2023/01/22 12:00:16;;;;;;;0.20;0.20;;;;;;;;;;5069218;28;20107;-71
2023/01/22 12:03:03;;;;;;;0.17;0.17;;;;;;;;;;5069304;28;20036;-72
2023/01/22 12:05:31;;;;;;;0.85;0.77;;;;;;;;;;5069557;28;20506;-71
2023/01/22 12:08:11;;;;;;;0.10;0.10;;;;;;;;;;5068660;28;20044;-73
2023/01/22 12:10:42;;;;;;;0.65;0.60;;;;;;;;;;5063006;28;20471;-72
2023/01/22 12:13:08;;;;;;;0.10;0.10;;;;;;;;;;5055303;28;20036;-73
2023/01/22 12:15:36;;;;;;;0.10;0.10;;;;;;;;;;5057613;28;20376;-76
2023/01/22 12:18:20;;;;;;;0.20;0.20;;;;;;;;;;5058697;28;20033;-76
2023/01/22 12:21:09;;;;;;;0.13;0.13;;;;;;;;;;5060251;28;20048;-71
2023/01/22 12:23:45;;;;;;;0.20;0.20;;;;;;;;;;5022084;28;20045;-71
2023/01/22 12:26:14;;;;;;;0.13;0.13;;;;;;;;;;5051734;28;20555;-72
2023/01/22 12:28:41;;;;;;;0.50;0.30;;;;;;;;;;5060088;28;20431;-72
2023/01/22 12:31:14;;;;;;;0.20;0.20;;;;;;;;;;5031209;28;20031;-71
2023/01/22 12:33:41;;;;;;;0.10;0.10;;;;;;;;;;5049133;28;20064;-71
2023/01/22 12:36:18;;;;;;;0.17;0.17;;;;;;;;;;5031497;28;20070;-75
2023/01/22 12:38:56;;;;;;;0.20;0.20;;;;;;;;;;5052147;28;20472;-71
2023/01/22 12:41:33;;;;;;;0.20;0.20;;;;;;;;;;5059273;28;20036;-71
2023/01/22 12:44:02;;;;;;;0.10;0.10;;;;;;;;;;5039605;28;20047;-73
2023/01/22 12:46:41;;;;;;;0.10;0.10;;;;;;;;;;5061954;28;20029;-72
2023/01/22 12:49:08;;;;;;;0.10;0.10;;;;;;;;;;5059569;28;20076;-71
2023/01/22 12:51:34;;;;;;;0.40;0.30;;;;;;;;;;5062544;28;20315;-72
2023/01/22 12:54:18;;;;;;;0.10;0.10;;;;;;;;;;5066733;28;20100;-71
2023/01/22 12:56:44;;;;;;;0.10;0.10;;;;;;;;;;5067867;28;20029;-71
2023/01/22 12:59:28;;;;;;;0.10;0.10;;;;;;;;;;5069215;28;20059;-71
2023/01/22 13:01:57;;;;;;;0.20;0.20;;;;;;;;;;5062466;28;20036;-71
2023/01/22 13:04:26;;;;;;;0.57;0.53;;;;;;;;;;5062414;28;20479;-71
2023/01/22 13:06:52;;;;;;;;;;;;;;;;;;5068869;28;20376;-71
2023/01/22 13:09:22;;;;;;;0.10;0.10;;;;;;;;;;5067005;28;19915;-73
2023/01/22 13:11:48;;;;;;;0.13;0.13;;;;;;;;;;5062115;28;20267;-75
2023/01/22 13:14:13;;;;;;;0.28;0.20;;;;;;;;;;5066962;28;20082;-72
2023/01/22 13:16:39;;;;;;;0.30;0.30;;;;;;;;;;5066470;28;20123;-72
2023/01/22 13:19:19;;;;;;;0.25;0.20;;;;;;;;;;5048786;28;20392;-74
2023/01/22 13:21:45;;;;;;;0.10;0.10;;;;;;;;;;5046956;28;20037;-72
2023/01/22 13:24:12;;;;;;;0.10;0.10;;;;;;;;;;5069176;28;20037;-72
2023/01/22 13:26:38;;;;;;;0.10;0.10;;;;;;;;;;5069291;28;20461;-73
2023/01/22 13:29:16;;;;;;;0.10;0.10;;;;;;;;;;5070419;28;20035;-72
2023/01/22 13:31:49;;;;;;;0.17;0.17;;;;;;;;;;5065962;28;20030;-72
2023/01/22 13:34:15;;;;;;;0.10;0.10;;;;;;;;;;5062253;28;20017;-72
2023/01/22 13:36:45;;;;;;;0.17;0.17;;;;;;;;;;5070554;28;20147;-71
2023/01/22 13:39:15;;;;;;;0.10;0.10;;;;;;;;;;5052701;28;20420;-72
2023/01/22 13:41:41;;;;;;;0.10;0.10;;;;;;;;;;5068641;28;20046;-73
2023/01/22 13:44:15;;;;;;;0.10;0.10;;;;;;;;;;5069739;28;20037;-73
2023/01/22 13:46:40;;;;;;;0.68;0.68;;;;;;;;;;5072332;28;20054;-72
2023/01/22 13:49:09;;;;;;;0.90;0.88;;;;;;;;;;5072137;28;20017;-75
2023/01/22 13:51:35;;;;;;;0.10;0.10;;;;;;;;;;5065167;28;20111;-72
2023/01/22 13:54:02;;;;;;;0.10;0.10;;;;;;;;;;5063511;28;20125;-74
2023/01/22 13:56:28;;;;;;;0.20;0.20;;;;;;;;;;5062689;28;20025;-80
2023/01/22 13:59:14;;;;;;;0.10;0.10;;;;;;;;;;5060541;28;20025;-75
2023/01/22 14:01:39;;;;;;;0.10;0.10;;;;;;;;;;5062229;28;20618;-74
2023/01/22 14:04:06;;;;;;;0.30;0.30;;;;;;;;;;5058356;28;20147;-76
2023/01/22 14:06:46;;;;;;;0.43;0.40;;;;;;;;;;5061663;28;20077;-75
2023/01/22 14:09:11;;;;;;;0.10;0.10;;;;;;;;;;5064796;28;20059;-75
2023/01/22 14:11:38;;;;;;;0.10;0.10;;;;;;;;;;5067185;28;20454;-74
2023/01/22 14:14:12;;;;;;;0.20;0.17;;;;;;;;;;5045009;28;20032;-74
2023/01/22 14:16:39;;;;;;;0.10;0.10;;;;;;;;;;5055646;28;20484;-74
2023/01/22 14:19:04;;;;;;;0.20;0.20;;;;;;;;;;5053668;28;20545;-74
2023/01/22 14:21:31;;;;;;;0.10;0.10;;;;;;;;;;5071588;28;20056;-74
2023/01/22 14:23:57;;;;;;;0.10;0.10;;;;;;;;;;5070830;28;20499;-74
2023/01/22 14:26:22;;;;;;;0.40;0.40;;;;;;;;;;5070851;28;20032;-79
2023/01/22 14:28:47;;;;;;;0.10;0.10;;;;;;;;;;5070253;28;20031;-73
2023/01/22 14:31:13;;;;;;;0.10;0.10;;;;;;;;;;5067327;28;20024;-73
2023/01/22 14:33:38;;;;;;;0.10;0.10;;;;;;;;;;5070833;28;20024;-73
2023/01/22 14:36:04;;;;;;;0.10;0.10;;;;;;;;;;5070652;28;20036;-73
2023/01/22 14:38:29;;;;;;;0.30;0.28;;;;;;;;;;5071052;28;20020;-74
2023/01/22 14:40:55;;;;;;;0.10;0.10;;;;;;;;;;5069714;28;20111;-82
2023/01/22 14:43:20;;;;;;;0.10;0.10;;;;;;;;;;5070825;28;20060;-73
2023/01/22 14:45:46;;;;;;;0.68;0.68;;;;;;;;;;5053551;28;20036;-73
2023/01/22 14:48:13;;;;;;;0.20;0.20;;;;;;;;;;5066461;28;20036;-74
2023/01/22 14:50:39;;;;;;;0.10;0.10;;;;;;;;;;5059143;28;20723;-75
2023/01/22 14:53:04;;;;;;;0.30;0.30;;;;;;;;;;5050640;28;20036;-75
2023/01/22 14:55:30;;;;;;;0.10;0.10;;;;;;;;;;5050589;28;20024;-78